HTAR

Arusha Airport

Arusha, Tanzania
METAR HTAR 201100Z 13010KT 9999 BKN024 21/13 Q1021
Observed Flight Rules
Jul-20 @ 11:00 UTC (4 hours ago) Marginal Visual Flight Rules
Wind Visibility Clouds
130° at 10 knots 10,000+ meters
  • Broken at 2,400' AGL
Temperatures Readings
Current 21°C / 70°F
Dewpoint 13°C / 55°F
Humidity 60%
Altimeter 30.15" Hg
Pressure 1021 hPa
Elevation 1387
METAR HTAR 201100Z 13010KT 9999 BKN024 21/13 Q1021
Observed Flight Rules
Jul-20 @ 11:00 UTC
(4 hours ago)
MVFR
Wind Visibility
130° at 10 knots 10,000+ meters
Clouds
  • Broken at 2,400' AGL
Temperature Dewpoint
21°C / 70°F 13°C / 55°F
Humidity Altimeter Pressure
60% 30.15" Hg 1021 hPa